createdAt,value
2017-10-21T00:02:02.944Z,87.43
2017-10-21T00:04:30.813Z,87.58
2017-10-21T00:06:58.402Z,87.54
2017-10-21T00:09:26.282Z,87.60
2017-10-21T00:11:53.901Z,86.53
2017-10-21T00:14:21.493Z,87.06
2017-10-21T00:16:49.114Z,86.81
2017-10-21T00:19:16.710Z,86.88
2017-10-21T00:21:44.296Z,86.81
2017-10-21T00:24:11.916Z,86.94
2017-10-21T00:26:39.821Z,87.31
2017-10-21T00:29:07.457Z,87.02
2017-10-21T00:31:35.059Z,87.25
2017-10-21T00:34:02.654Z,86.93
2017-10-21T00:36:30.271Z,86.76
2017-10-21T00:38:57.845Z,86.93
2017-10-21T00:41:25.495Z,86.45
2017-10-21T00:43:53.085Z,86.59
2017-10-21T00:46:20.696Z,86.58
2017-10-21T00:48:48.308Z,86.84
2017-10-21T00:51:16.144Z,86.62
2017-10-21T00:53:43.769Z,86.32
2017-10-21T00:56:11.366Z,86.04
2017-10-21T00:58:38.968Z,86.28
2017-10-21T01:01:06.633Z,86.04
2017-10-21T01:03:34.225Z,85.87
2017-10-21T01:06:01.853Z,85.55
2017-10-21T01:08:29.441Z,85.13
2017-10-21T01:10:57.025Z,85.38
2017-10-21T01:13:24.643Z,85.75
2017-10-21T01:15:52.573Z,85.37
2017-10-21T01:18:20.200Z,85.42
2017-10-21T01:20:47.790Z,85.79
2017-10-21T01:23:15.377Z,85.84
2017-10-21T01:25:42.992Z,84.87
2017-10-21T01:28:10.593Z,85.19
2017-10-21T01:30:38.223Z,84.63
2017-10-21T01:33:05.813Z,84.78
2017-10-21T01:35:33.397Z,85.09
2017-10-21T01:38:01.028Z,85.30
2017-10-21T01:40:28.893Z,85.73
2017-10-21T01:42:56.517Z,85.94
2017-10-21T01:45:24.110Z,85.85
2017-10-21T01:47:51.985Z,86.00
2017-10-21T01:50:19.599Z,86.27
2017-10-21T01:52:49.456Z,86.06
2017-10-21T01:55:17.077Z,85.77
2017-10-21T01:57:44.664Z,85.07
2017-10-21T02:00:12.272Z,85.50
2017-10-21T02:02:39.886Z,85.86
2017-10-21T02:05:07.486Z,85.65
2017-10-21T02:07:35.113Z,85.25
2017-10-21T02:10:03.006Z,85.38
2017-10-21T02:12:30.597Z,85.39
2017-10-21T02:14:58.226Z,85.27
2017-10-21T02:17:25.853Z,85.13
2017-10-21T02:19:53.473Z,85.37
2017-10-21T02:22:21.066Z,85.45
2017-10-21T02:24:48.677Z,85.66
2017-10-21T02:27:16.293Z,85.50
2017-10-21T02:29:44.202Z,85.30
2017-10-21T02:32:11.836Z,85.34
2017-10-21T02:34:39.428Z,85.49
2017-10-21T02:37:07.010Z,85.41
2017-10-21T02:39:34.625Z,84.97
2017-10-21T02:42:02.229Z,85.27
2017-10-21T02:44:29.877Z,85.19
2017-10-21T02:46:57.466Z,85.04
2017-10-21T02:49:25.043Z,85.16
2017-10-21T02:51:52.660Z,85.11
2017-10-21T02:54:20.245Z,85.46
2017-10-21T02:56:48.089Z,85.19
2017-10-21T02:59:15.710Z,85.21
2017-10-21T03:01:43.315Z,85.60
2017-10-21T03:04:10.929Z,85.74
2017-10-21T03:06:38.548Z,85.20
2017-10-21T03:09:06.124Z,85.01
2017-10-21T03:11:34.072Z,84.87
2017-10-21T03:14:01.662Z,85.19
2017-10-21T03:16:29.248Z,85.23
2017-10-21T03:18:56.873Z,85.27
2017-10-21T03:21:24.721Z,85.06
2017-10-21T03:23:52.341Z,85.14
2017-10-21T03:26:20.250Z,85.12
2017-10-21T03:28:48.216Z,85.35
2017-10-21T03:31:15.836Z,85.27
2017-10-21T03:33:43.422Z,84.95
2017-10-21T03:36:11.048Z,84.80
2017-10-21T03:38:38.654Z,84.78
2017-10-21T03:41:06.261Z,84.40
2017-10-21T03:43:33.875Z,84.73
2017-10-21T03:46:01.761Z,84.27
2017-10-21T03:48:29.381Z,84.50
2017-10-21T03:50:56.973Z,84.39
2017-10-21T03:53:24.561Z,84.24
2017-10-21T03:55:52.179Z,84.67
2017-10-21T03:58:20.051Z,84.87
2017-10-21T04:00:47.679Z,84.46
2017-10-21T04:03:15.605Z,84.51
2017-10-21T04:05:43.213Z,84.32
2017-10-21T04:08:10.836Z,84.06
2017-10-21T04:10:38.422Z,83.71
2017-10-21T04:13:06.048Z,83.44
2017-10-21T04:15:33.634Z,83.73
2017-10-21T04:18:01.220Z,83.39
2017-10-21T04:20:28.870Z,83.72
2017-10-21T04:22:56.458Z,83.83
2017-10-21T04:25:24.089Z,83.20
2017-10-21T04:27:51.686Z,82.85
2017-10-21T04:30:19.311Z,83.37
2017-10-21T04:32:46.920Z,83.37
2017-10-21T04:35:14.515Z,83.02
2017-10-21T04:37:42.165Z,83.07
2017-10-21T04:40:09.747Z,83.12
2017-10-21T04:42:37.600Z,82.99
2017-10-21T04:45:05.205Z,83.28
2017-10-21T04:47:32.806Z,83.25
2017-10-21T04:50:00.428Z,83.41
2017-10-21T04:52:28.023Z,83.00
2017-10-21T04:54:55.618Z,83.25
2017-10-21T04:57:23.236Z,83.52
2017-10-21T04:59:50.833Z,83.08
2017-10-21T05:02:18.463Z,83.19
2017-10-21T05:04:46.076Z,82.93
2017-10-21T05:07:13.924Z,83.51
2017-10-21T05:09:41.536Z,83.39
2017-10-21T05:12:09.137Z,83.14
2017-10-21T05:14:36.772Z,83.09
2017-10-21T05:17:04.684Z,83.34
2017-10-21T05:19:32.277Z,83.06
2017-10-21T05:22:00.208Z,83.20
2017-10-21T05:24:27.798Z,83.37
2017-10-21T05:26:55.421Z,83.58
2017-10-21T05:29:23.020Z,83.58
2017-10-21T05:31:50.605Z,84.04
2017-10-21T05:34:18.233Z,83.82
2017-10-21T05:36:45.820Z,83.88
2017-10-21T05:39:13.438Z,83.31
2017-10-21T05:41:41.309Z,83.37
2017-10-21T05:44:08.901Z,83.51
2017-10-21T05:46:36.846Z,83.20
2017-10-21T05:49:04.432Z,82.93
2017-10-21T05:51:32.372Z,83.03
2017-10-21T05:53:59.961Z,82.85
2017-10-21T05:56:28.726Z,83.04
2017-10-21T05:58:56.331Z,82.87
2017-10-21T06:01:23.924Z,82.90
2017-10-21T06:03:51.557Z,83.07
2017-10-21T06:06:19.149Z,82.84
2017-10-21T06:08:46.739Z,83.08
2017-10-21T06:11:14.376Z,83.12
2017-10-21T06:13:41.978Z,82.98
2017-10-21T06:16:09.639Z,82.57
2017-10-21T06:18:37.249Z,82.78
2017-10-21T06:21:04.951Z,82.39
2017-10-21T06:23:32.573Z,81.89
2017-10-21T06:26:00.176Z,81.63
2017-10-21T06:28:27.825Z,81.77
2017-10-21T06:30:55.413Z,81.75
2017-10-21T06:33:22.989Z,81.92
2017-10-21T06:35:50.652Z,81.66
2017-10-21T06:38:18.264Z,81.84
2017-10-21T06:40:45.896Z,81.52
2017-10-21T06:43:13.720Z,81.52
2017-10-21T06:45:41.316Z,81.44
2017-10-21T06:48:09.341Z,81.38
2017-10-21T06:50:36.936Z,81.76
2017-10-21T06:53:04.574Z,81.52
2017-10-21T06:55:32.157Z,81.70
2017-10-21T06:57:59.763Z,81.50
2017-10-21T07:00:27.380Z,81.50
2017-10-21T07:02:54.969Z,81.41
2017-10-21T07:05:22.582Z,81.43
2017-10-21T07:07:50.169Z,81.17
2017-10-21T07:10:17.806Z,81.42
2017-10-21T07:12:45.398Z,81.51
2017-10-21T07:15:13.002Z,80.95
2017-10-21T07:17:40.890Z,80.42
2017-10-21T07:20:08.475Z,79.90
2017-10-21T07:22:36.102Z,79.71
2017-10-21T07:25:03.704Z,79.23
2017-10-21T07:27:31.296Z,78.50
2017-10-21T07:29:58.906Z,79.45
2017-10-21T07:32:26.499Z,79.53
2017-10-21T07:34:54.125Z,79.86
2017-10-21T07:37:21.747Z,79.88
2017-10-21T07:39:49.349Z,79.02
2017-10-21T07:42:17.212Z,79.71
2017-10-21T07:44:44.801Z,79.62
2017-10-21T07:47:12.423Z,79.48
2017-10-21T07:49:40.023Z,79.73
2017-10-21T07:52:07.604Z,78.90
2017-10-21T07:54:35.532Z,78.80
2017-10-21T07:57:03.141Z,78.86
2017-10-21T07:59:30.779Z,78.83
2017-10-21T08:01:58.617Z,78.76
2017-10-21T08:04:26.217Z,78.47
2017-10-21T08:06:53.845Z,78.47
2017-10-21T08:09:21.439Z,78.76
2017-10-21T08:11:49.074Z,78.58
2017-10-21T08:14:16.680Z,78.38
2017-10-21T08:16:44.275Z,78.46
2017-10-21T08:19:12.159Z,78.53
2017-10-21T08:21:39.736Z,78.25
2017-10-21T08:24:07.357Z,78.40
2017-10-21T08:26:34.977Z,78.15
2017-10-21T08:29:02.613Z,78.09
2017-10-21T08:31:30.971Z,78.60
2017-10-21T08:33:58.566Z,78.23
2017-10-21T08:36:26.196Z,78.20
2017-10-21T08:38:53.784Z,78.52
2017-10-21T08:41:21.381Z,79.01
2017-10-21T08:43:48.990Z,78.68
2017-10-21T08:46:16.580Z,78.65
2017-10-21T08:48:44.194Z,78.54
2017-10-21T08:51:11.798Z,78.98
2017-10-21T08:53:39.385Z,78.40
2017-10-21T08:56:07.841Z,78.41
2017-10-21T08:58:35.426Z,78.13
2017-10-21T09:01:03.062Z,78.56
2017-10-21T09:03:30.667Z,78.13
2017-10-21T09:05:58.264Z,77.75
2017-10-21T09:08:25.874Z,77.83
2017-10-21T09:10:53.481Z,77.99
2017-10-21T09:13:21.105Z,78.34
2017-10-21T09:15:48.734Z,77.79
2017-10-21T09:18:16.320Z,78.38
2017-10-21T09:20:43.946Z,77.38
2017-10-21T09:23:11.565Z,77.51
2017-10-21T09:25:39.197Z,77.70
2017-10-21T09:28:06.791Z,77.67
2017-10-21T09:30:34.403Z,77.92
2017-10-21T09:33:02.051Z,77.64
2017-10-21T09:35:29.657Z,77.39
2017-10-21T09:37:57.258Z,77.55
2017-10-21T09:40:25.021Z,77.08
2017-10-21T09:42:52.917Z,77.30
2017-10-21T09:45:20.506Z,77.34
2017-10-21T09:47:48.413Z,77.78
2017-10-21T09:50:16.760Z,78.32
2017-10-21T09:52:44.378Z,78.25
2017-10-21T09:55:12.047Z,78.09
2017-10-21T09:57:39.646Z,77.79
2017-10-21T10:00:07.266Z,76.99
2017-10-21T10:02:34.889Z,77.24
2017-10-21T10:05:02.488Z,76.94
2017-10-21T10:07:30.133Z,77.09
2017-10-21T10:09:57.734Z,76.83
2017-10-21T10:12:25.330Z,76.63
2017-10-21T10:14:52.964Z,76.54
2017-10-21T10:17:20.566Z,76.26
2017-10-21T10:19:48.210Z,76.26
2017-10-21T10:22:16.133Z,76.23
2017-10-21T10:24:43.771Z,76.59
2017-10-21T10:27:11.420Z,76.24
2017-10-21T10:29:39.014Z,76.43
2017-10-21T10:32:06.657Z,76.46
2017-10-21T10:34:34.256Z,76.41
2017-10-21T10:37:01.861Z,76.31
2017-10-21T10:39:29.487Z,76.17
2017-10-21T10:41:57.078Z,76.65
2017-10-21T10:44:25.062Z,76.49
2017-10-21T10:46:52.660Z,76.31
2017-10-21T10:49:20.252Z,76.70
2017-10-21T10:51:47.861Z,76.60
2017-10-21T10:54:15.713Z,76.16
2017-10-21T10:56:43.355Z,75.96
2017-10-21T10:59:10.945Z,75.57
2017-10-21T11:01:38.541Z,74.88
2017-10-21T11:04:06.175Z,74.85
2017-10-21T11:06:33.772Z,74.28
2017-10-21T11:09:01.407Z,74.59
2017-10-21T11:11:29.394Z,74.75
2017-10-21T11:13:57.019Z,74.45
2017-10-21T11:16:24.647Z,74.76
2017-10-21T11:18:52.590Z,74.32
2017-10-21T11:21:20.217Z,74.79
2017-10-21T11:23:47.818Z,74.92
2017-10-21T11:26:15.788Z,74.88
2017-10-21T11:28:43.401Z,74.74
2017-10-21T11:31:11.317Z,74.78
2017-10-21T11:33:38.963Z,74.08
2017-10-21T11:36:06.637Z,73.62
2017-10-21T11:38:34.264Z,74.02
2017-10-21T11:41:01.870Z,73.90
2017-10-21T11:43:29.469Z,74.49
2017-10-21T11:45:57.089Z,74.46
2017-10-21T11:48:24.684Z,74.31
2017-10-21T11:50:52.283Z,73.74
2017-10-21T11:53:19.894Z,73.51
2017-10-21T11:55:47.479Z,73.12
2017-10-21T11:58:15.419Z,73.42
2017-10-21T12:00:43.270Z,73.77
2017-10-21T12:03:10.849Z,73.95
2017-10-21T12:05:38.464Z,73.48
2017-10-21T12:08:06.068Z,73.45
2017-10-21T12:10:33.702Z,73.48
2017-10-21T12:13:01.302Z,73.46
2017-10-21T12:15:28.894Z,73.10
2017-10-21T12:17:56.520Z,72.91
2017-10-21T12:20:24.114Z,72.85
2017-10-21T12:22:51.769Z,72.48
2017-10-21T12:25:19.362Z,72.34
2017-10-21T12:27:46.956Z,72.40
2017-10-21T12:30:14.580Z,72.08
2017-10-21T12:32:42.160Z,72.43
2017-10-21T12:35:10.039Z,72.55
2017-10-21T12:37:37.661Z,72.85
2017-10-21T12:40:05.290Z,72.87
2017-10-21T12:42:32.897Z,72.78
2017-10-21T12:45:00.501Z,72.91
2017-10-21T12:47:28.129Z,73.19
2017-10-21T12:49:55.736Z,73.54
2017-10-21T12:52:23.582Z,73.76
2017-10-21T12:54:51.206Z,73.89
2017-10-21T12:57:18.805Z,73.92
2017-10-21T12:59:46.421Z,74.21
2017-10-21T13:02:14.014Z,74.03
2017-10-21T13:04:41.894Z,74.63
2017-10-21T13:07:09.506Z,74.25
2017-10-21T13:09:37.426Z,73.80
2017-10-21T13:12:05.055Z,73.51
2017-10-21T13:14:32.676Z,73.41
2017-10-21T13:17:00.514Z,73.57
2017-10-21T13:19:28.136Z,73.41
2017-10-21T13:21:55.733Z,72.68
2017-10-21T13:24:23.413Z,72.62
2017-10-21T13:26:51.001Z,72.40
2017-10-21T13:29:18.736Z,72.79
2017-10-21T13:31:46.354Z,72.73
2017-10-21T13:34:13.945Z,72.94
2017-10-21T13:36:41.582Z,72.69
2017-10-21T13:39:09.177Z,72.53
2017-10-21T13:41:36.764Z,72.41
2017-10-21T13:44:04.372Z,72.55
2017-10-21T13:46:31.973Z,73.08
2017-10-21T13:48:59.671Z,72.72
2017-10-21T13:51:27.283Z,72.93
2017-10-21T13:53:54.872Z,72.06
2017-10-21T13:56:22.489Z,72.19
2017-10-21T13:58:50.077Z,71.78
2017-10-21T14:01:17.697Z,72.51
2017-10-21T14:03:45.341Z,72.78
2017-10-21T14:06:12.937Z,72.91
2017-10-21T14:08:40.556Z,72.91
2017-10-21T14:11:08.177Z,72.65
2017-10-21T14:13:36.257Z,72.41
2017-10-21T14:16:03.845Z,72.79
2017-10-21T14:18:31.428Z,72.28
2017-10-21T14:20:59.049Z,72.85
2017-10-21T14:23:26.648Z,73.40
2017-10-21T14:25:54.569Z,73.31
2017-10-21T14:28:22.157Z,73.60
2017-10-21T14:30:49.753Z,74.11
2017-10-21T14:33:17.424Z,73.91
2017-10-21T14:35:45.246Z,74.00
2017-10-21T14:38:12.871Z,73.91
2017-10-21T14:40:40.469Z,73.63
2017-10-21T14:43:08.102Z,73.90
2017-10-21T14:45:35.982Z,73.45
2017-10-21T14:48:03.577Z,73.30
2017-10-21T14:50:31.241Z,73.21
2017-10-21T14:52:59.168Z,73.64
2017-10-21T14:55:26.757Z,74.02
2017-10-21T14:57:54.369Z,73.97
2017-10-21T15:00:21.980Z,74.36
2017-10-21T15:02:50.035Z,74.57
2017-10-21T15:05:17.898Z,74.49
2017-10-21T15:07:45.502Z,74.29
2017-10-21T15:10:13.125Z,74.45
2017-10-21T15:12:40.741Z,74.76
2017-10-21T15:15:08.383Z,74.67
2017-10-21T15:17:35.979Z,75.14
2017-10-21T15:20:03.891Z,75.31
2017-10-21T15:22:31.643Z,75.20
2017-10-21T15:24:59.253Z,75.18
2017-10-21T15:27:27.174Z,75.26
2017-10-21T15:29:54.756Z,75.47
2017-10-21T15:32:22.588Z,75.03
2017-10-21T15:34:50.292Z,75.02
2017-10-21T15:37:17.903Z,74.75
2017-10-21T15:39:45.559Z,75.14
2017-10-21T15:42:13.190Z,75.53
2017-10-21T15:44:40.859Z,75.80
2017-10-21T15:47:08.544Z,76.16
2017-10-21T15:49:36.130Z,76.16
2017-10-21T15:52:03.752Z,76.69
2017-10-21T15:54:31.344Z,76.04
2017-10-21T15:56:58.937Z,76.44
2017-10-21T15:59:26.584Z,76.76
2017-10-21T16:01:54.173Z,76.70
2017-10-21T16:04:21.802Z,76.95
2017-10-21T16:06:49.681Z,77.14
2017-10-21T16:09:17.350Z,77.32
2017-10-21T16:11:44.978Z,77.60
2017-10-21T16:14:12.816Z,77.26
2017-10-21T16:16:40.481Z,77.43
2017-10-21T16:19:08.071Z,77.53
2017-10-21T16:21:35.664Z,77.54
2017-10-21T16:24:03.280Z,77.63
2017-10-21T16:26:31.190Z,77.68
2017-10-21T16:28:58.802Z,77.92
2017-10-21T16:31:26.421Z,77.86
2017-10-21T16:33:54.046Z,78.00
2017-10-21T16:36:21.674Z,78.00
2017-10-21T16:38:49.258Z,77.68
2017-10-21T16:41:16.853Z,78.22
2017-10-21T16:43:44.481Z,77.85
2017-10-21T16:46:12.078Z,77.96
2017-10-21T16:48:39.728Z,78.21
2017-10-21T16:51:07.412Z,78.23
2017-10-21T16:56:08.911Z,78.13
2017-10-21T16:58:36.597Z,77.95
2017-10-21T17:01:04.179Z,77.76
2017-10-21T17:03:31.834Z,78.12
2017-10-21T17:05:59.437Z,78.30
2017-10-21T17:08:27.030Z,78.43
2017-10-21T17:10:54.678Z,78.44
2017-10-21T17:13:22.274Z,78.04
2017-10-21T17:15:49.898Z,77.96
2017-10-21T17:18:17.523Z,78.33
2017-10-21T17:20:45.104Z,78.03
2017-10-21T17:23:12.738Z,78.01
2017-10-21T17:25:40.351Z,78.03
2017-10-21T17:28:07.977Z,78.26
2017-10-21T17:30:35.639Z,78.36
2017-10-21T17:33:03.228Z,78.25
2017-10-21T17:35:30.864Z,77.91
2017-10-21T17:37:58.469Z,78.27
2017-10-21T17:40:26.129Z,78.02
2017-10-21T17:42:53.717Z,77.91
2017-10-21T17:45:21.310Z,77.93
2017-10-21T17:47:48.926Z,77.94
2017-10-21T17:50:16.549Z,78.28
2017-10-21T17:52:44.521Z,78.34
2017-10-21T17:55:12.109Z,78.09
2017-10-21T17:57:39.882Z,78.21
2017-10-21T18:00:07.522Z,78.40
2017-10-21T18:02:35.129Z,78.54
2017-10-21T18:05:02.770Z,78.50
2017-10-21T18:07:30.392Z,78.43
2017-10-21T18:09:58.004Z,78.47
2017-10-21T18:12:25.633Z,78.22
2017-10-21T18:14:53.229Z,78.19
2017-10-21T18:17:20.864Z,78.52
2017-10-21T18:19:48.469Z,78.12
2017-10-21T18:22:16.057Z,78.33
2017-10-21T18:24:43.680Z,78.38
2017-10-21T18:27:11.285Z,78.14
2017-10-21T18:29:39.262Z,78.50
2017-10-21T18:32:06.849Z,78.38
2017-10-21T18:34:34.441Z,78.66
2017-10-21T18:37:02.088Z,78.50
2017-10-21T18:39:29.682Z,78.09
2017-10-21T18:41:57.310Z,78.46
2017-10-21T18:44:25.136Z,78.28
2017-10-21T18:46:52.766Z,78.51
2017-10-21T18:49:20.396Z,78.39
2017-10-21T18:51:48.029Z,78.51
2017-10-21T18:54:15.670Z,78.57
2017-10-21T18:56:43.276Z,78.70
2017-10-21T18:59:10.883Z,78.86
2017-10-21T19:01:38.506Z,78.96
2017-10-21T19:04:06.098Z,79.01
2017-10-21T19:06:33.733Z,79.17
2017-10-21T19:09:01.333Z,79.22
2017-10-21T19:11:29.153Z,78.78
2017-10-21T19:13:56.764Z,79.04
2017-10-21T19:16:24.349Z,79.08
2017-10-21T19:18:52.315Z,79.25
2017-10-21T19:21:19.900Z,79.68
2017-10-21T19:23:47.476Z,79.92
2017-10-21T19:26:15.104Z,80.42
2017-10-21T19:28:42.689Z,79.89
2017-10-21T19:31:10.316Z,80.60
2017-10-21T19:33:37.919Z,81.07
2017-10-21T19:36:05.509Z,81.90
2017-10-21T19:38:33.212Z,82.25
2017-10-21T19:41:00.807Z,82.53
2017-10-21T19:43:28.437Z,83.19
2017-10-21T19:45:56.303Z,82.99
2017-10-21T19:48:23.889Z,83.38
2017-10-21T19:50:51.503Z,84.07
2017-10-21T19:53:19.096Z,83.89
2017-10-21T19:55:46.759Z,83.73
2017-10-21T19:58:14.360Z,84.10
2017-10-21T20:00:42.576Z,84.65
2017-10-21T20:03:10.196Z,84.38
2017-10-21T20:05:38.087Z,84.37
2017-10-21T20:08:05.758Z,84.43
2017-10-21T20:10:33.346Z,84.67
2017-10-21T20:13:00.943Z,84.80
2017-10-21T20:15:28.562Z,84.66
2017-10-21T20:17:56.429Z,84.39
2017-10-21T20:20:24.312Z,84.18
2017-10-21T20:22:51.899Z,84.13
2017-10-21T20:25:19.725Z,84.05
2017-10-21T20:27:47.337Z,84.02
2017-10-21T20:30:14.922Z,84.27
2017-10-21T20:32:42.555Z,84.51
2017-10-21T20:35:10.486Z,84.40
2017-10-21T20:37:38.082Z,83.85
2017-10-21T20:40:05.731Z,83.54
2017-10-21T20:42:33.318Z,83.88
2017-10-21T20:45:00.953Z,84.09
2017-10-21T20:47:28.542Z,84.44
2017-10-21T20:49:56.172Z,83.66
2017-10-21T20:52:24.016Z,83.86
2017-10-21T20:54:51.599Z,83.61
2017-10-21T20:57:19.235Z,83.96
2017-10-21T20:59:47.117Z,84.02
2017-10-21T21:02:15.085Z,83.96
2017-10-21T21:04:42.953Z,84.21
2017-10-21T21:07:10.546Z,84.13
2017-10-21T21:09:38.169Z,84.06
2017-10-21T21:12:05.751Z,84.03
2017-10-21T21:14:33.332Z,83.77
2017-10-21T21:17:00.948Z,83.88
2017-10-21T21:19:28.529Z,83.68
2017-10-21T21:21:56.173Z,83.77
2017-10-21T21:24:23.764Z,83.80
2017-10-21T21:26:51.359Z,84.11
2017-10-21T21:29:18.969Z,84.22
2017-10-21T21:31:46.559Z,84.48
2017-10-21T21:34:14.217Z,84.48
2017-10-21T21:36:42.165Z,84.51
2017-10-21T21:39:10.036Z,84.68
2017-10-21T21:41:37.646Z,84.62
2017-10-21T21:44:05.232Z,84.50
2017-10-21T21:46:32.844Z,84.77
2017-10-21T21:49:00.436Z,84.60
2017-10-21T21:51:28.345Z,84.16
2017-10-21T21:53:55.965Z,84.07
2017-10-21T21:56:23.558Z,83.99
2017-10-21T21:58:51.184Z,84.22
2017-10-21T22:01:18.776Z,84.44
2017-10-21T22:03:46.661Z,84.97
2017-10-21T22:06:14.270Z,85.04
2017-10-21T22:08:41.854Z,84.70
2017-10-21T22:11:09.495Z,84.61
2017-10-21T22:13:37.102Z,84.82
2017-10-21T22:16:04.700Z,84.97
2017-10-21T22:18:32.308Z,84.74
2017-10-21T22:21:00.197Z,85.08
2017-10-21T22:23:28.124Z,84.67
2017-10-21T22:25:55.772Z,84.73
2017-10-21T22:28:23.353Z,85.02
2017-10-21T22:30:50.969Z,84.75
2017-10-21T22:33:18.557Z,84.75
2017-10-21T22:35:46.205Z,84.90
2017-10-21T22:38:13.842Z,84.88
2017-10-21T22:40:41.426Z,85.04
2017-10-21T22:43:09.045Z,85.32
2017-10-21T22:45:36.936Z,86.17
2017-10-21T22:48:04.563Z,86.54
2017-10-21T22:50:32.201Z,87.34
2017-10-21T22:52:59.782Z,87.21
2017-10-21T22:55:27.400Z,87.03
2017-10-21T22:57:56.075Z,87.44
2017-10-21T23:00:23.714Z,87.87
2017-10-21T23:02:51.296Z,88.15
2017-10-21T23:05:18.876Z,87.99
2017-10-21T23:07:46.496Z,87.99
2017-10-21T23:10:14.076Z,88.23
2017-10-21T23:12:41.707Z,88.14
2017-10-21T23:15:09.297Z,88.04
2017-10-21T23:17:36.886Z,88.15
2017-10-21T23:20:04.836Z,87.74
2017-10-21T23:22:32.440Z,87.95
2017-10-21T23:25:00.364Z,88.11
2017-10-21T23:27:27.953Z,88.14
2017-10-21T23:29:55.895Z,88.03
2017-10-21T23:32:23.512Z,88.28
2017-10-21T23:34:51.420Z,88.67
2017-10-21T23:37:19.064Z,88.53
2017-10-21T23:39:46.658Z,88.55
2017-10-21T23:42:14.481Z,88.78
2017-10-21T23:44:42.108Z,88.90
2017-10-21T23:47:09.692Z,89.26
2017-10-21T23:49:37.277Z,89.42
2017-10-21T23:52:04.897Z,89.27
2017-10-21T23:54:32.506Z,89.29
2017-10-21T23:57:00.334Z,89.51
2017-10-21T23:59:27.957Z,89.67
